Terminal Aerodrome Forecast
Issued by NWS Pueblo, CO

Home | Current Version | Previous Version | Text Only | Print | Product List | Glossary On
Versions: 1 2 3 4 5 6 7 8 9 10 11 12 13 14 15 16 17 18 19 20 21 22 23 24 25 26 27 28 29 30 31 32 33 34 35 36 37 38 39 40 41 42
000
FTUS45 KPUB 211725
TAFPUB
TAF
KPUB 211725Z 2118/2218 05010KT P6SM SCT120 SCT200
     FM212200 04012KT P6SM VCTS SCT100CB BKN150
     FM220300 33015KT P6SM SCT120 BKN150
     FM220700 36008KT P6SM SCT140 SCT200=

USA.gov is the U.S. government's official web portal to all federal, state and local government web resources and services.